sensor_id;sensor_type;location;lat;lon;timestamp;P1;durP1;ratioP1;P2;durP2;ratioP2
8803;SDS011;4438;50.890;4.726;2022-07-22T00:02:11;7.47;;;3.80;;
8803;SDS011;4438;50.890;4.726;2022-07-22T00:04:37;5.97;;;3.77;;
8803;SDS011;4438;50.890;4.726;2022-07-22T00:07:03;8.70;;;4.43;;
8803;SDS011;4438;50.890;4.726;2022-07-22T00:09:30;6.37;;;3.33;;
8803;SDS011;4438;50.890;4.726;2022-07-22T00:11:56;6.10;;;3.57;;
8803;SDS011;4438;50.890;4.726;2022-07-22T00:14:22;6.30;;;3.60;;
8803;SDS011;4438;50.890;4.726;2022-07-22T00:16:48;4.90;;;3.33;;
8803;SDS011;4438;50.890;4.726;2022-07-22T00:19:14;6.53;;;3.63;;
8803;SDS011;4438;50.890;4.726;2022-07-22T00:21:40;6.40;;;3.57;;
8803;SDS011;4438;50.890;4.726;2022-07-22T00:24:06;5.97;;;3.80;;
8803;SDS011;4438;50.890;4.726;2022-07-22T00:26:33;4.70;;;3.27;;
8803;SDS011;4438;50.890;4.726;2022-07-22T00:28:59;6.43;;;3.60;;
8803;SDS011;4438;50.890;4.726;2022-07-22T00:31:25;4.83;;;3.27;;
8803;SDS011;4438;50.890;4.726;2022-07-22T00:33:51;6.10;;;3.80;;
8803;SDS011;4438;50.890;4.726;2022-07-22T00:36:17;6.50;;;3.10;;
8803;SDS011;4438;50.890;4.726;2022-07-22T00:38:43;5.87;;;3.70;;
8803;SDS011;4438;50.890;4.726;2022-07-22T00:41:09;5.37;;;3.20;;
8803;SDS011;4438;50.890;4.726;2022-07-22T00:46:35;4.33;;;3.10;;
8803;SDS011;4438;50.890;4.726;2022-07-22T00:49:02;6.23;;;3.70;;
8803;SDS011;4438;50.890;4.726;2022-07-22T00:51:28;5.90;;;3.63;;
8803;SDS011;4438;50.890;4.726;2022-07-22T00:53:55;5.90;;;3.87;;
8803;SDS011;4438;50.890;4.726;2022-07-22T00:56:25;8.47;;;6.33;;
8803;SDS011;4438;50.890;4.726;2022-07-22T00:58:52;6.93;;;5.07;;
8803;SDS011;4438;50.890;4.726;2022-07-22T01:01:18;9.03;;;5.47;;
8803;SDS011;4438;50.890;4.726;2022-07-22T01:03:44;7.53;;;5.30;;
8803;SDS011;4438;50.890;4.726;2022-07-22T01:06:10;7.43;;;5.17;;
8803;SDS011;4438;50.890;4.726;2022-07-22T01:08:37;7.20;;;5.67;;
8803;SDS011;4438;50.890;4.726;2022-07-22T01:11:08;8.73;;;5.67;;
8803;SDS011;4438;50.890;4.726;2022-07-22T01:13:34;9.10;;;6.70;;
8803;SDS011;4438;50.890;4.726;2022-07-22T01:16:01;10.37;;;6.80;;
8803;SDS011;4438;50.890;4.726;2022-07-22T01:18:27;7.93;;;6.23;;
8803;SDS011;4438;50.890;4.726;2022-07-22T01:20:54;9.90;;;6.67;;
8803;SDS011;4438;50.890;4.726;2022-07-22T01:23:20;9.90;;;6.47;;
8803;SDS011;4438;50.890;4.726;2022-07-22T01:25:46;8.47;;;6.17;;
8803;SDS011;4438;50.890;4.726;2022-07-22T01:28:12;8.03;;;6.00;;
8803;SDS011;4438;50.890;4.726;2022-07-22T01:30:38;9.70;;;5.93;;
8803;SDS011;4438;50.890;4.726;2022-07-22T01:33:04;9.47;;;6.10;;
8803;SDS011;4438;50.890;4.726;2022-07-22T01:35:30;7.17;;;6.20;;
8803;SDS011;4438;50.890;4.726;2022-07-22T01:37:56;7.90;;;5.90;;
8803;SDS011;4438;50.890;4.726;2022-07-22T01:40:22;10.47;;;6.30;;
8803;SDS011;4438;50.890;4.726;2022-07-22T01:42:48;9.70;;;5.73;;
8803;SDS011;4438;50.890;4.726;2022-07-22T01:45:14;7.63;;;5.60;;
8803;SDS011;4438;50.890;4.726;2022-07-22T01:47:40;8.97;;;5.50;;
8803;SDS011;4438;50.890;4.726;2022-07-22T01:50:07;9.23;;;5.73;;
8803;SDS011;4438;50.890;4.726;2022-07-22T01:52:34;7.03;;;5.47;;
8803;SDS011;4438;50.890;4.726;2022-07-22T01:55:00;6.97;;;4.73;;
8803;SDS011;4438;50.890;4.726;2022-07-22T01:57:26;7.63;;;5.13;;
8803;SDS011;4438;50.890;4.726;2022-07-22T01:59:52;6.37;;;4.43;;
8803;SDS011;4438;50.890;4.726;2022-07-22T02:02:18;6.87;;;4.40;;
8803;SDS011;4438;50.890;4.726;2022-07-22T02:04:45;4.90;;;3.77;;
8803;SDS011;4438;50.890;4.726;2022-07-22T02:07:11;5.70;;;4.23;;
8803;SDS011;4438;50.890;4.726;2022-07-22T02:09:37;5.90;;;4.10;;
8803;SDS011;4438;50.890;4.726;2022-07-22T02:12:03;6.70;;;3.97;;
8803;SDS011;4438;50.890;4.726;2022-07-22T02:14:29;4.50;;;3.60;;
8803;SDS011;4438;50.890;4.726;2022-07-22T02:16:55;4.67;;;3.57;;
8803;SDS011;4438;50.890;4.726;2022-07-22T02:19:21;4.67;;;3.30;;
8803;SDS011;4438;50.890;4.726;2022-07-22T02:21:47;5.53;;;3.60;;
8803;SDS011;4438;50.890;4.726;2022-07-22T02:24:13;6.57;;;4.00;;
8803;SDS011;4438;50.890;4.726;2022-07-22T02:26:39;3.97;;;3.30;;
8803;SDS011;4438;50.890;4.726;2022-07-22T02:29:05;3.70;;;3.07;;
8803;SDS011;4438;50.890;4.726;2022-07-22T02:31:32;7.00;;;3.90;;
8803;SDS011;4438;50.890;4.726;2022-07-22T02:33:58;3.50;;;3.13;;
8803;SDS011;4438;50.890;4.726;2022-07-22T02:36:24;4.33;;;3.00;;
8803;SDS011;4438;50.890;4.726;2022-07-22T02:38:50;5.60;;;3.63;;
8803;SDS011;4438;50.890;4.726;2022-07-22T02:41:16;3.80;;;3.37;;
8803;SDS011;4438;50.890;4.726;2022-07-22T02:43:42;4.43;;;3.50;;
8803;SDS011;4438;50.890;4.726;2022-07-22T02:46:09;4.27;;;3.30;;
8803;SDS011;4438;50.890;4.726;2022-07-22T02:48:35;5.23;;;3.27;;
8803;SDS011;4438;50.890;4.726;2022-07-22T02:51:01;5.00;;;3.53;;
8803;SDS011;4438;50.890;4.726;2022-07-22T02:53:28;4.87;;;3.57;;
8803;SDS011;4438;50.890;4.726;2022-07-22T02:55:54;3.67;;;3.00;;
8803;SDS011;4438;50.890;4.726;2022-07-22T02:58:20;5.60;;;3.53;;
8803;SDS011;4438;50.890;4.726;2022-07-22T03:00:46;4.30;;;3.10;;
8803;SDS011;4438;50.890;4.726;2022-07-22T03:03:12;6.20;;;3.37;;
8803;SDS011;4438;50.890;4.726;2022-07-22T03:05:38;4.70;;;3.10;;
8803;SDS011;4438;50.890;4.726;2022-07-22T03:08:04;6.60;;;3.10;;
8803;SDS011;4438;50.890;4.726;2022-07-22T03:10:30;5.37;;;3.33;;
8803;SDS011;4438;50.890;4.726;2022-07-22T03:12:56;3.93;;;3.37;;
8803;SDS011;4438;50.890;4.726;2022-07-22T03:15:23;3.40;;;3.10;;
8803;SDS011;4438;50.890;4.726;2022-07-22T03:17:49;4.80;;;3.10;;
8803;SDS011;4438;50.890;4.726;2022-07-22T03:20:15;4.93;;;3.60;;
8803;SDS011;4438;50.890;4.726;2022-07-22T03:22:41;5.50;;;3.27;;
8803;SDS011;4438;50.890;4.726;2022-07-22T03:25:07;5.30;;;3.20;;
8803;SDS011;4438;50.890;4.726;2022-07-22T03:27:33;4.93;;;3.10;;
8803;SDS011;4438;50.890;4.726;2022-07-22T03:29:59;3.63;;;3.33;;
8803;SDS011;4438;50.890;4.726;2022-07-22T03:32:26;3.47;;;3.00;;
8803;SDS011;4438;50.890;4.726;2022-07-22T03:34:52;3.63;;;2.90;;
8803;SDS011;4438;50.890;4.726;2022-07-22T03:37:18;4.83;;;3.30;;
8803;SDS011;4438;50.890;4.726;2022-07-22T03:39:44;4.77;;;3.03;;
8803;SDS011;4438;50.890;4.726;2022-07-22T03:42:10;3.33;;;3.03;;
8803;SDS011;4438;50.890;4.726;2022-07-22T03:44:36;4.33;;;3.17;;
8803;SDS011;4438;50.890;4.726;2022-07-22T03:47:02;4.43;;;2.97;;
8803;SDS011;4438;50.890;4.726;2022-07-22T03:49:29;4.20;;;2.87;;
8803;SDS011;4438;50.890;4.726;2022-07-22T03:51:55;5.10;;;3.00;;
8803;SDS011;4438;50.890;4.726;2022-07-22T03:54:21;6.17;;;3.13;;
8803;SDS011;4438;50.890;4.726;2022-07-22T03:56:47;5.37;;;3.93;;
8803;SDS011;4438;50.890;4.726;2022-07-22T03:59:14;6.00;;;3.90;;
8803;SDS011;4438;50.890;4.726;2022-07-22T04:01:40;4.13;;;3.50;;
8803;SDS011;4438;50.890;4.726;2022-07-22T04:04:06;6.07;;;3.33;;
8803;SDS011;4438;50.890;4.726;2022-07-22T04:06:32;4.23;;;3.20;;
8803;SDS011;4438;50.890;4.726;2022-07-22T04:08:59;5.90;;;3.50;;
8803;SDS011;4438;50.890;4.726;2022-07-22T04:11:25;3.83;;;3.10;;
8803;SDS011;4438;50.890;4.726;2022-07-22T04:13:51;7.47;;;3.30;;
8803;SDS011;4438;50.890;4.726;2022-07-22T04:16:18;3.90;;;3.20;;
8803;SDS011;4438;50.890;4.726;2022-07-22T04:18:44;5.73;;;3.57;;
8803;SDS011;4438;50.890;4.726;2022-07-22T04:21:10;4.53;;;3.10;;
8803;SDS011;4438;50.890;4.726;2022-07-22T04:23:36;6.83;;;3.80;;
8803;SDS011;4438;50.890;4.726;2022-07-22T04:26:04;6.97;;;3.40;;
8803;SDS011;4438;50.890;4.726;2022-07-22T04:28:32;5.70;;;3.37;;
8803;SDS011;4438;50.890;4.726;2022-07-22T04:30:59;4.47;;;3.73;;
8803;SDS011;4438;50.890;4.726;2022-07-22T04:33:25;4.57;;;3.40;;
8803;SDS011;4438;50.890;4.726;2022-07-22T04:35:51;8.10;;;3.77;;
8803;SDS011;4438;50.890;4.726;2022-07-22T04:38:17;4.83;;;3.90;;
8803;SDS011;4438;50.890;4.726;2022-07-22T04:40:43;4.90;;;3.50;;
8803;SDS011;4438;50.890;4.726;2022-07-22T04:43:09;4.30;;;3.40;;
8803;SDS011;4438;50.890;4.726;2022-07-22T04:45:35;4.43;;;3.33;;
8803;SDS011;4438;50.890;4.726;2022-07-22T04:48:01;5.47;;;3.60;;
8803;SDS011;4438;50.890;4.726;2022-07-22T04:50:27;4.97;;;3.47;;
8803;SDS011;4438;50.890;4.726;2022-07-22T04:52:53;7.13;;;4.10;;
8803;SDS011;4438;50.890;4.726;2022-07-22T04:55:20;4.20;;;3.60;;
8803;SDS011;4438;50.890;4.726;2022-07-22T04:57:46;4.83;;;3.40;;
8803;SDS011;4438;50.890;4.726;2022-07-22T05:00:12;5.57;;;3.77;;
8803;SDS011;4438;50.890;4.726;2022-07-22T05:02:38;5.60;;;3.90;;
8803;SDS011;4438;50.890;4.726;2022-07-22T05:05:04;5.70;;;3.83;;
8803;SDS011;4438;50.890;4.726;2022-07-22T05:07:30;4.60;;;4.10;;
8803;SDS011;4438;50.890;4.726;2022-07-22T05:09:57;5.23;;;4.13;;
8803;SDS011;4438;50.890;4.726;2022-07-22T05:12:23;6.50;;;4.40;;
8803;SDS011;4438;50.890;4.726;2022-07-22T05:14:49;6.83;;;4.03;;
8803;SDS011;4438;50.890;4.726;2022-07-22T05:17:15;4.93;;;4.37;;
8803;SDS011;4438;50.890;4.726;2022-07-22T05:19:41;5.93;;;4.60;;
8803;SDS011;4438;50.890;4.726;2022-07-22T05:22:07;7.53;;;5.23;;
8803;SDS011;4438;50.890;4.726;2022-07-22T05:24:33;7.57;;;5.00;;
8803;SDS011;4438;50.890;4.726;2022-07-22T05:27:00;8.30;;;5.43;;
8803;SDS011;4438;50.890;4.726;2022-07-22T05:29:26;5.07;;;4.57;;
8803;SDS011;4438;50.890;4.726;2022-07-22T05:31:52;6.90;;;5.00;;
8803;SDS011;4438;50.890;4.726;2022-07-22T05:34:18;7.63;;;5.27;;
8803;SDS011;4438;50.890;4.726;2022-07-22T05:36:44;10.33;;;7.67;;
8803;SDS011;4438;50.890;4.726;2022-07-22T05:39:10;8.97;;;6.60;;
8803;SDS011;4438;50.890;4.726;2022-07-22T05:41:36;9.20;;;6.40;;
8803;SDS011;4438;50.890;4.726;2022-07-22T05:44:03;7.00;;;6.07;;
8803;SDS011;4438;50.890;4.726;2022-07-22T05:46:29;12.40;;;7.87;;
8803;SDS011;4438;50.890;4.726;2022-07-22T05:48:56;8.90;;;6.10;;
8803;SDS011;4438;50.890;4.726;2022-07-22T05:51:22;8.33;;;7.30;;
8803;SDS011;4438;50.890;4.726;2022-07-22T05:53:48;8.53;;;6.50;;
8803;SDS011;4438;50.890;4.726;2022-07-22T05:56:15;11.87;;;7.27;;
8803;SDS011;4438;50.890;4.726;2022-07-22T05:58:42;8.17;;;6.90;;
8803;SDS011;4438;50.890;4.726;2022-07-22T06:01:11;7.43;;;6.20;;
8803;SDS011;4438;50.890;4.726;2022-07-22T06:03:37;11.37;;;7.53;;
8803;SDS011;4438;50.890;4.726;2022-07-22T06:06:04;9.13;;;6.53;;
8803;SDS011;4438;50.890;4.726;2022-07-22T06:08:33;10.27;;;6.57;;
8803;SDS011;4438;50.890;4.726;2022-07-22T06:10:59;7.67;;;5.90;;
8803;SDS011;4438;50.890;4.726;2022-07-22T06:13:25;9.30;;;6.87;;
8803;SDS011;4438;50.890;4.726;2022-07-22T06:15:52;8.00;;;6.20;;
8803;SDS011;4438;50.890;4.726;2022-07-22T06:18:18;9.53;;;5.90;;
8803;SDS011;4438;50.890;4.726;2022-07-22T06:20:44;8.23;;;6.60;;
8803;SDS011;4438;50.890;4.726;2022-07-22T06:23:10;7.33;;;6.13;;
8803;SDS011;4438;50.890;4.726;2022-07-22T06:25:37;10.43;;;5.87;;
8803;SDS011;4438;50.890;4.726;2022-07-22T06:28:04;8.10;;;5.57;;
8803;SDS011;4438;50.890;4.726;2022-07-22T06:30:30;9.37;;;5.53;;
8803;SDS011;4438;50.890;4.726;2022-07-22T06:32:56;9.63;;;5.50;;
8803;SDS011;4438;50.890;4.726;2022-07-22T06:35:23;7.73;;;5.00;;
8803;SDS011;4438;50.890;4.726;2022-07-22T06:37:50;9.43;;;5.57;;
8803;SDS011;4438;50.890;4.726;2022-07-22T06:40:16;7.07;;;5.07;;
8803;SDS011;4438;50.890;4.726;2022-07-22T06:42:42;6.73;;;5.40;;
8803;SDS011;4438;50.890;4.726;2022-07-22T06:45:08;6.30;;;5.00;;
8803;SDS011;4438;50.890;4.726;2022-07-22T06:47:34;7.90;;;5.50;;
8803;SDS011;4438;50.890;4.726;2022-07-22T06:50:04;6.60;;;5.33;;
8803;SDS011;4438;50.890;4.726;2022-07-22T06:52:30;7.73;;;5.20;;
8803;SDS011;4438;50.890;4.726;2022-07-22T06:54:56;7.07;;;5.53;;
8803;SDS011;4438;50.890;4.726;2022-07-22T06:57:23;8.47;;;5.60;;
8803;SDS011;4438;50.890;4.726;2022-07-22T06:59:49;8.30;;;5.57;;
8803;SDS011;4438;50.890;4.726;2022-07-22T07:02:15;5.93;;;5.23;;
8803;SDS011;4438;50.890;4.726;2022-07-22T07:04:41;7.03;;;5.30;;
8803;SDS011;4438;50.890;4.726;2022-07-22T07:07:08;7.77;;;5.60;;
8803;SDS011;4438;50.890;4.726;2022-07-22T07:09:34;7.97;;;5.53;;
8803;SDS011;4438;50.890;4.726;2022-07-22T07:12:01;6.27;;;4.97;;
8803;SDS011;4438;50.890;4.726;2022-07-22T07:14:27;6.23;;;4.87;;
8803;SDS011;4438;50.890;4.726;2022-07-22T07:16:53;6.87;;;5.00;;
8803;SDS011;4438;50.890;4.726;2022-07-22T07:19:19;6.20;;;4.23;;
8803;SDS011;4438;50.890;4.726;2022-07-22T07:21:45;6.73;;;4.67;;
8803;SDS011;4438;50.890;4.726;2022-07-22T07:24:11;6.30;;;4.77;;
8803;SDS011;4438;50.890;4.726;2022-07-22T07:26:38;5.07;;;3.90;;
8803;SDS011;4438;50.890;4.726;2022-07-22T07:29:04;6.03;;;4.43;;
8803;SDS011;4438;50.890;4.726;2022-07-22T07:31:30;4.23;;;3.83;;
8803;SDS011;4438;50.890;4.726;2022-07-22T07:33:56;6.13;;;4.37;;
8803;SDS011;4438;50.890;4.726;2022-07-22T07:36:23;3.70;;;3.30;;
8803;SDS011;4438;50.890;4.726;2022-07-22T07:38:49;4.97;;;4.20;;
8803;SDS011;4438;50.890;4.726;2022-07-22T07:41:15;5.43;;;3.83;;
8803;SDS011;4438;50.890;4.726;2022-07-22T07:43:41;4.23;;;3.83;;
8803;SDS011;4438;50.890;4.726;2022-07-22T07:46:07;5.20;;;4.10;;
8803;SDS011;4438;50.890;4.726;2022-07-22T07:48:33;4.43;;;3.57;;
8803;SDS011;4438;50.890;4.726;2022-07-22T07:51:00;4.67;;;3.53;;
8803;SDS011;4438;50.890;4.726;2022-07-22T07:53:26;4.83;;;3.43;;
8803;SDS011;4438;50.890;4.726;2022-07-22T07:55:52;4.40;;;3.90;;
8803;SDS011;4438;50.890;4.726;2022-07-22T07:58:18;5.43;;;3.83;;
8803;SDS011;4438;50.890;4.726;2022-07-22T08:00:44;5.57;;;3.77;;
8803;SDS011;4438;50.890;4.726;2022-07-22T08:03:11;3.90;;;3.57;;
8803;SDS011;4438;50.890;4.726;2022-07-22T08:05:37;4.90;;;3.70;;
8803;SDS011;4438;50.890;4.726;2022-07-22T08:08:06;4.37;;;3.97;;
8803;SDS011;4438;50.890;4.726;2022-07-22T08:10:32;5.93;;;4.20;;
8803;SDS011;4438;50.890;4.726;2022-07-22T08:12:59;6.63;;;3.77;;
8803;SDS011;4438;50.890;4.726;2022-07-22T08:15:26;4.20;;;3.70;;
8803;SDS011;4438;50.890;4.726;2022-07-22T08:17:52;4.53;;;3.37;;
8803;SDS011;4438;50.890;4.726;2022-07-22T08:20:18;3.90;;;2.97;;
8803;SDS011;4438;50.890;4.726;2022-07-22T08:22:45;5.37;;;3.07;;
8803;SDS011;4438;50.890;4.726;2022-07-22T08:25:11;4.07;;;2.97;;
8803;SDS011;4438;50.890;4.726;2022-07-22T08:27:37;4.40;;;3.33;;
8803;SDS011;4438;50.890;4.726;2022-07-22T08:30:04;3.90;;;3.30;;
8803;SDS011;4438;50.890;4.726;2022-07-22T08:32:31;3.63;;;3.30;;
8803;SDS011;4438;50.890;4.726;2022-07-22T08:34:57;3.80;;;3.40;;
8803;SDS011;4438;50.890;4.726;2022-07-22T08:37:23;5.03;;;3.30;;
8803;SDS011;4438;50.890;4.726;2022-07-22T08:39:50;5.17;;;3.80;;
8803;SDS011;4438;50.890;4.726;2022-07-22T08:42:16;4.33;;;3.20;;
8803;SDS011;4438;50.890;4.726;2022-07-22T08:44:43;3.63;;;3.30;;
8803;SDS011;4438;50.890;4.726;2022-07-22T08:47:09;4.00;;;3.60;;
8803;SDS011;4438;50.890;4.726;2022-07-22T08:49:35;5.17;;;3.77;;
8803;SDS011;4438;50.890;4.726;2022-07-22T08:52:01;4.87;;;4.10;;
8803;SDS011;4438;50.890;4.726;2022-07-22T08:54:27;6.53;;;4.70;;
8803;SDS011;4438;50.890;4.726;2022-07-22T08:56:54;4.50;;;4.10;;
8803;SDS011;4438;50.890;4.726;2022-07-22T08:59:20;6.13;;;4.50;;
8803;SDS011;4438;50.890;4.726;2022-07-22T09:04:27;6.17;;;4.50;;
8803;SDS011;4438;50.890;4.726;2022-07-22T09:06:53;4.63;;;4.10;;
8803;SDS011;4438;50.890;4.726;2022-07-22T09:09:28;6.50;;;4.27;;
8803;SDS011;4438;50.890;4.726;2022-07-22T09:12:07;5.47;;;4.40;;
8803;SDS011;4438;50.890;4.726;2022-07-22T09:17:33;5.37;;;3.80;;
8803;SDS011;4438;50.890;4.726;2022-07-22T09:20:01;4.73;;;4.30;;
8803;SDS011;4438;50.890;4.726;2022-07-22T09:22:36;5.37;;;3.80;;
8803;SDS011;4438;50.890;4.726;2022-07-22T09:27:48;4.87;;;4.47;;
8803;SDS011;4438;50.890;4.726;2022-07-22T09:30:18;5.90;;;3.97;;
8803;SDS011;4438;50.890;4.726;2022-07-22T09:32:45;4.97;;;4.57;;
8803;SDS011;4438;50.890;4.726;2022-07-22T09:35:12;5.33;;;4.40;;
8803;SDS011;4438;50.890;4.726;2022-07-22T09:37:47;4.97;;;3.93;;
8803;SDS011;4438;50.890;4.726;2022-07-22T09:40:21;5.53;;;4.33;;
8803;SDS011;4438;50.890;4.726;2022-07-22T09:42:58;5.13;;;4.43;;
8803;SDS011;4438;50.890;4.726;2022-07-22T09:45:25;6.13;;;4.60;;
8803;SDS011;4438;50.890;4.726;2022-07-22T09:47:53;5.03;;;4.03;;
8803;SDS011;4438;50.890;4.726;2022-07-22T09:52:51;4.40;;;4.00;;
8803;SDS011;4438;50.890;4.726;2022-07-22T09:55:18;4.17;;;3.77;;
8803;SDS011;4438;50.890;4.726;2022-07-22T09:57:44;4.77;;;4.27;;
8803;SDS011;4438;50.890;4.726;2022-07-22T10:00:15;5.47;;;4.10;;
8803;SDS011;4438;50.890;4.726;2022-07-22T10:05:14;3.90;;;3.50;;
8803;SDS011;4438;50.890;4.726;2022-07-22T10:07:41;4.37;;;3.97;;
8803;SDS011;4438;50.890;4.726;2022-07-22T10:10:08;4.30;;;3.90;;
8803;SDS011;4438;50.890;4.726;2022-07-22T10:12:36;4.43;;;4.00;;
8803;SDS011;4438;50.890;4.726;2022-07-22T10:15:03;4.00;;;3.70;;
8803;SDS011;4438;50.890;4.726;2022-07-22T10:17:30;4.33;;;3.93;;
8803;SDS011;4438;50.890;4.726;2022-07-22T10:19:56;4.07;;;3.77;;
8803;SDS011;4438;50.890;4.726;2022-07-22T10:25:05;4.67;;;3.63;;
8803;SDS011;4438;50.890;4.726;2022-07-22T10:30:14;4.30;;;3.67;;
8803;SDS011;4438;50.890;4.726;2022-07-22T10:32:41;4.10;;;3.50;;
8803;SDS011;4438;50.890;4.726;2022-07-22T10:35:19;5.27;;;3.93;;
8803;SDS011;4438;50.890;4.726;2022-07-22T10:37:45;4.53;;;3.87;;
8803;SDS011;4438;50.890;4.726;2022-07-22T10:45:25;4.27;;;3.87;;
8803;SDS011;4438;50.890;4.726;2022-07-22T10:47:55;4.83;;;4.03;;
8803;SDS011;4438;50.890;4.726;2022-07-22T10:53:03;4.10;;;3.50;;
8803;SDS011;4438;50.890;4.726;2022-07-22T10:55:29;4.03;;;3.60;;
8803;SDS011;4438;50.890;4.726;2022-07-22T10:57:56;4.43;;;3.80;;
8803;SDS011;4438;50.890;4.726;2022-07-22T11:00:22;4.40;;;4.00;;
8803;SDS011;4438;50.890;4.726;2022-07-22T11:02:48;3.77;;;3.47;;
8803;SDS011;4438;50.890;4.726;2022-07-22T11:05:14;4.10;;;3.73;;
8803;SDS011;4438;50.890;4.726;2022-07-22T11:07:50;4.80;;;3.93;;
8803;SDS011;4438;50.890;4.726;2022-07-22T11:10:17;4.17;;;3.70;;
8803;SDS011;4438;50.890;4.726;2022-07-22T11:12:44;3.83;;;3.57;;
8803;SDS011;4438;50.890;4.726;2022-07-22T11:15:10;4.43;;;4.03;;
8803;SDS011;4438;50.890;4.726;2022-07-22T11:17:37;4.13;;;3.80;;
8803;SDS011;4438;50.890;4.726;2022-07-22T11:20:04;4.33;;;3.93;;
8803;SDS011;4438;50.890;4.726;2022-07-22T11:22:31;4.20;;;3.80;;
8803;SDS011;4438;50.890;4.726;2022-07-22T11:24:57;4.43;;;3.90;;
8803;SDS011;4438;50.890;4.726;2022-07-22T11:27:25;5.43;;;3.80;;
8803;SDS011;4438;50.890;4.726;2022-07-22T11:29:52;4.50;;;3.80;;
8803;SDS011;4438;50.890;4.726;2022-07-22T11:32:19;4.70;;;4.30;;
8803;SDS011;4438;50.890;4.726;2022-07-22T11:34:46;4.30;;;3.90;;
8803;SDS011;4438;50.890;4.726;2022-07-22T11:37:13;4.53;;;4.10;;
8803;SDS011;4438;50.890;4.726;2022-07-22T11:39:39;4.63;;;4.23;;
8803;SDS011;4438;50.890;4.726;2022-07-22T11:42:06;5.80;;;4.50;;
8803;SDS011;4438;50.890;4.726;2022-07-22T11:44:33;4.53;;;3.70;;
8803;SDS011;4438;50.890;4.726;2022-07-22T11:47:00;4.73;;;4.33;;
8803;SDS011;4438;50.890;4.726;2022-07-22T11:49:28;3.83;;;3.53;;
8803;SDS011;4438;50.890;4.726;2022-07-22T11:51:55;4.80;;;4.30;;
8803;SDS011;4438;50.890;4.726;2022-07-22T11:54:21;4.40;;;4.10;;
8803;SDS011;4438;50.890;4.726;2022-07-22T11:56:47;4.37;;;3.97;;
8803;SDS011;4438;50.890;4.726;2022-07-22T11:59:14;5.10;;;4.47;;
8803;SDS011;4438;50.890;4.726;2022-07-22T12:01:41;4.93;;;4.53;;
8803;SDS011;4438;50.890;4.726;2022-07-22T12:04:08;6.67;;;4.23;;
8803;SDS011;4438;50.890;4.726;2022-07-22T12:06:35;5.50;;;4.50;;
8803;SDS011;4438;50.890;4.726;2022-07-22T12:11:31;5.10;;;4.60;;
8803;SDS011;4438;50.890;4.726;2022-07-22T12:14:01;4.50;;;4.10;;
8803;SDS011;4438;50.890;4.726;2022-07-22T12:16:30;5.70;;;4.73;;
8803;SDS011;4438;50.890;4.726;2022-07-22T12:18:57;4.87;;;4.47;;
8803;SDS011;4438;50.890;4.726;2022-07-22T12:21:24;5.93;;;4.70;;
8803;SDS011;4438;50.890;4.726;2022-07-22T12:23:51;6.10;;;4.60;;
8803;SDS011;4438;50.890;4.726;2022-07-22T12:26:18;4.70;;;4.30;;
8803;SDS011;4438;50.890;4.726;2022-07-22T12:28:44;4.30;;;3.90;;
8803;SDS011;4438;50.890;4.726;2022-07-22T12:31:10;4.47;;;3.97;;
8803;SDS011;4438;50.890;4.726;2022-07-22T12:33:36;5.20;;;4.17;;
8803;SDS011;4438;50.890;4.726;2022-07-22T12:36:03;4.90;;;4.30;;
8803;SDS011;4438;50.890;4.726;2022-07-22T12:38:30;4.50;;;4.10;;
8803;SDS011;4438;50.890;4.726;2022-07-22T12:40:56;4.17;;;3.83;;
8803;SDS011;4438;50.890;4.726;2022-07-22T12:43:25;4.90;;;4.27;;
8803;SDS011;4438;50.890;4.726;2022-07-22T12:45:52;4.10;;;3.70;;
8803;SDS011;4438;50.890;4.726;2022-07-22T12:48:18;4.67;;;4.20;;
8803;SDS011;4438;50.890;4.726;2022-07-22T12:50:57;4.40;;;4.00;;
8803;SDS011;4438;50.890;4.726;2022-07-22T12:53:25;4.37;;;3.97;;
8803;SDS011;4438;50.890;4.726;2022-07-22T12:55:57;4.83;;;3.60;;
8803;SDS011;4438;50.890;4.726;2022-07-22T12:58:26;5.00;;;3.87;;
8803;SDS011;4438;50.890;4.726;2022-07-22T13:00:54;4.20;;;3.80;;
8803;SDS011;4438;50.890;4.726;2022-07-22T13:03:20;4.20;;;3.70;;
8803;SDS011;4438;50.890;4.726;2022-07-22T13:05:52;4.03;;;3.50;;
8803;SDS011;4438;50.890;4.726;2022-07-22T13:08:19;4.87;;;4.00;;
8803;SDS011;4438;50.890;4.726;2022-07-22T13:10:45;4.30;;;3.90;;
8803;SDS011;4438;50.890;4.726;2022-07-22T13:13:11;3.77;;;3.47;;
8803;SDS011;4438;50.890;4.726;2022-07-22T13:15:38;4.00;;;3.47;;
8803;SDS011;4438;50.890;4.726;2022-07-22T13:18:04;4.33;;;3.50;;
8803;SDS011;4438;50.890;4.726;2022-07-22T13:20:31;3.80;;;3.50;;
8803;SDS011;4438;50.890;4.726;2022-07-22T13:22:57;3.93;;;3.60;;
8803;SDS011;4438;50.890;4.726;2022-07-22T13:25:23;4.23;;;3.70;;
8803;SDS011;4438;50.890;4.726;2022-07-22T13:27:54;3.57;;;3.27;;
8803;SDS011;4438;50.890;4.726;2022-07-22T13:30:21;4.20;;;3.80;;
8803;SDS011;4438;50.890;4.726;2022-07-22T13:32:47;4.77;;;3.40;;
8803;SDS011;4438;50.890;4.726;2022-07-22T13:35:13;4.23;;;3.40;;
8803;SDS011;4438;50.890;4.726;2022-07-22T13:37:39;3.97;;;3.53;;
8803;SDS011;4438;50.890;4.726;2022-07-22T13:40:06;5.43;;;3.33;;
8803;SDS011;4438;50.890;4.726;2022-07-22T13:42:33;3.67;;;3.30;;
8803;SDS011;4438;50.890;4.726;2022-07-22T13:44:59;3.80;;;3.50;;
8803;SDS011;4438;50.890;4.726;2022-07-22T13:47:25;3.80;;;3.50;;
8803;SDS011;4438;50.890;4.726;2022-07-22T13:49:52;5.77;;;3.87;;
8803;SDS011;4438;50.890;4.726;2022-07-22T13:52:18;3.90;;;3.20;;
8803;SDS011;4438;50.890;4.726;2022-07-22T13:54:44;3.90;;;3.60;;
8803;SDS011;4438;50.890;4.726;2022-07-22T13:57:10;3.67;;;3.37;;
8803;SDS011;4438;50.890;4.726;2022-07-22T13:59:37;3.90;;;3.50;;
8803;SDS011;4438;50.890;4.726;2022-07-22T14:02:03;3.90;;;3.57;;
8803;SDS011;4438;50.890;4.726;2022-07-22T14:04:30;5.30;;;3.57;;
8803;SDS011;4438;50.890;4.726;2022-07-22T14:06:56;4.17;;;3.77;;
8803;SDS011;4438;50.890;4.726;2022-07-22T14:09:22;3.97;;;3.60;;
8803;SDS011;4438;50.890;4.726;2022-07-22T14:11:48;4.80;;;3.87;;
8803;SDS011;4438;50.890;4.726;2022-07-22T14:14:14;3.93;;;3.63;;
8803;SDS011;4438;50.890;4.726;2022-07-22T14:16:40;6.70;;;4.03;;
8803;SDS011;4438;50.890;4.726;2022-07-22T14:19:07;4.33;;;3.93;;
8803;SDS011;4438;50.890;4.726;2022-07-22T14:21:34;4.57;;;3.90;;
8803;SDS011;4438;50.890;4.726;2022-07-22T14:24:01;5.17;;;3.73;;
8803;SDS011;4438;50.890;4.726;2022-07-22T14:26:27;3.97;;;3.67;;
8803;SDS011;4438;50.890;4.726;2022-07-22T14:28:53;4.10;;;3.60;;
8803;SDS011;4438;50.890;4.726;2022-07-22T14:31:19;6.23;;;3.87;;
8803;SDS011;4438;50.890;4.726;2022-07-22T14:33:46;4.93;;;3.40;;
8803;SDS011;4438;50.890;4.726;2022-07-22T14:36:12;4.23;;;3.83;;
8803;SDS011;4438;50.890;4.726;2022-07-22T14:38:38;4.70;;;4.07;;
8803;SDS011;4438;50.890;4.726;2022-07-22T14:41:04;4.37;;;3.90;;
8803;SDS011;4438;50.890;4.726;2022-07-22T14:43:32;5.20;;;3.97;;
8803;SDS011;4438;50.890;4.726;2022-07-22T14:45:58;5.83;;;4.37;;
8803;SDS011;4438;50.890;4.726;2022-07-22T14:48:24;5.27;;;3.90;;
8803;SDS011;4438;50.890;4.726;2022-07-22T14:50:51;4.73;;;4.00;;
8803;SDS011;4438;50.890;4.726;2022-07-22T14:53:17;4.40;;;3.70;;
8803;SDS011;4438;50.890;4.726;2022-07-22T14:55:43;3.90;;;3.47;;
8803;SDS011;4438;50.890;4.726;2022-07-22T14:58:09;5.37;;;3.97;;
8803;SDS011;4438;50.890;4.726;2022-07-22T15:00:35;4.77;;;3.93;;
8803;SDS011;4438;50.890;4.726;2022-07-22T15:03:01;5.47;;;3.80;;
8803;SDS011;4438;50.890;4.726;2022-07-22T15:05:27;4.80;;;4.40;;
8803;SDS011;4438;50.890;4.726;2022-07-22T15:07:53;7.50;;;4.33;;
8803;SDS011;4438;50.890;4.726;2022-07-22T15:10:19;4.33;;;3.83;;
8803;SDS011;4438;50.890;4.726;2022-07-22T15:12:45;4.27;;;3.83;;
8803;SDS011;4438;50.890;4.726;2022-07-22T15:15:11;5.23;;;4.10;;
8803;SDS011;4438;50.890;4.726;2022-07-22T15:17:38;4.37;;;3.70;;
8803;SDS011;4438;50.890;4.726;2022-07-22T15:20:05;4.83;;;4.33;;
8803;SDS011;4438;50.890;4.726;2022-07-22T15:22:31;6.17;;;4.17;;
8803;SDS011;4438;50.890;4.726;2022-07-22T15:24:57;4.47;;;3.90;;
8803;SDS011;4438;50.890;4.726;2022-07-22T15:27:23;4.60;;;4.10;;
8803;SDS011;4438;50.890;4.726;2022-07-22T15:29:50;6.20;;;4.50;;
8803;SDS011;4438;50.890;4.726;2022-07-22T15:32:16;5.53;;;4.23;;
8803;SDS011;4438;50.890;4.726;2022-07-22T15:34:43;4.67;;;4.23;;
8803;SDS011;4438;50.890;4.726;2022-07-22T15:37:10;5.20;;;4.37;;
8803;SDS011;4438;50.890;4.726;2022-07-22T15:39:36;4.27;;;3.73;;
8803;SDS011;4438;50.890;4.726;2022-07-22T15:42:02;5.17;;;4.10;;
8803;SDS011;4438;50.890;4.726;2022-07-22T15:44:29;5.20;;;4.10;;